createdAt,value
2022-11-05T00:02:28.477Z,6.38
2022-11-05T00:05:14.700Z,5.88
2022-11-05T00:08:02.504Z,5.47
2022-11-05T00:10:31.511Z,5.90
2022-11-05T00:13:18.076Z,5.70
2022-11-05T00:16:04.744Z,5.35
2022-11-05T00:18:32.318Z,5.40
2022-11-05T00:20:59.809Z,5.28
2022-11-05T00:23:45.671Z,5.28
2022-11-05T00:26:13.711Z,4.95
2022-11-05T00:28:44.227Z,5.40
2022-11-05T00:31:13.013Z,5.75
2022-11-05T00:33:41.225Z,5.97
2022-11-05T00:36:09.808Z,6.30
2022-11-05T00:38:37.420Z,5.65
2022-11-05T00:41:04.894Z,6.07
2022-11-05T00:43:50.989Z,6.20
2022-11-05T00:46:18.543Z,6.38
2022-11-05T00:49:04.547Z,6.03
2022-11-05T00:51:32.235Z,6.32
2022-11-05T00:53:59.695Z,6.28
2022-11-05T00:56:27.188Z,6.50
2022-11-05T00:58:56.466Z,6.53
2022-11-05T01:01:24.245Z,5.40
2022-11-05T01:03:52.154Z,5.65
2022-11-05T01:06:19.520Z,6.55
2022-11-05T01:08:47.485Z,6.22
2022-11-05T01:11:35.344Z,6.03
2022-11-05T01:14:07.803Z,7.13
2022-11-05T01:16:36.025Z,5.53
2022-11-05T01:19:04.644Z,5.68
2022-11-05T01:21:32.030Z,5.90
2022-11-05T01:23:59.459Z,5.70
2022-11-05T01:26:27.508Z,6.18
2022-11-05T01:28:55.802Z,6.38
2022-11-05T01:31:23.916Z,5.90
2022-11-05T01:33:51.824Z,7.38
2022-11-05T01:36:19.903Z,7.53
2022-11-05T01:38:47.127Z,7.22
2022-11-05T01:41:14.460Z,6.75
2022-11-05T01:43:49.639Z,6.93
2022-11-05T01:46:23.269Z,6.95
2022-11-05T01:48:51.636Z,6.40
2022-11-05T01:51:20.447Z,6.28
2022-11-05T01:53:56.248Z,5.82
2022-11-05T01:56:29.490Z,6.53
2022-11-05T01:59:04.120Z,6.20
2022-11-05T02:01:32.237Z,7.07
2022-11-05T02:04:01.673Z,6.82
2022-11-05T02:06:29.852Z,6.88
2022-11-05T02:08:57.196Z,7.00
2022-11-05T02:11:24.890Z,7.05
2022-11-05T02:13:52.359Z,8.07
2022-11-05T02:16:38.525Z,7.20
2022-11-05T02:19:06.002Z,6.75
2022-11-05T02:21:52.516Z,7.28
2022-11-05T02:24:32.426Z,6.13
2022-11-05T02:27:08.122Z,7.82
2022-11-05T02:29:38.276Z,7.18
2022-11-05T02:32:15.863Z,6.68
2022-11-05T02:34:56.276Z,7.10
2022-11-05T02:37:45.168Z,6.97
2022-11-05T02:40:24.285Z,6.88
2022-11-05T02:43:06.892Z,6.60
2022-11-05T02:45:34.199Z,6.75
2022-11-05T02:48:04.640Z,7.25
2022-11-05T02:50:35.865Z,6.78
2022-11-05T02:53:04.854Z,8.02
2022-11-05T02:55:38.006Z,8.13
2022-11-05T02:58:06.479Z,8.32
2022-11-05T03:00:40.236Z,7.72
2022-11-05T03:03:12.633Z,9.43
2022-11-05T03:06:06.466Z,11.07
2022-11-05T03:08:43.578Z,10.40
2022-11-05T03:11:15.730Z,10.02
2022-11-05T03:13:45.820Z,9.23
2022-11-05T03:16:17.480Z,8.48
2022-11-05T03:18:56.199Z,9.00
2022-11-05T03:21:29.960Z,8.65
2022-11-05T03:23:59.692Z,8.85
2022-11-05T03:26:31.946Z,7.80
2022-11-05T03:29:06.760Z,7.72
2022-11-05T03:31:35.063Z,8.00
2022-11-05T03:34:04.716Z,8.40
2022-11-05T03:36:34.001Z,9.32
2022-11-05T03:39:04.009Z,9.38
2022-11-05T03:41:33.139Z,8.65
2022-11-05T03:44:02.991Z,9.52
2022-11-05T03:46:32.779Z,9.68
2022-11-05T03:49:02.207Z,9.00
2022-11-05T03:51:48.548Z,9.85
2022-11-05T03:54:16.569Z,8.95
2022-11-05T03:56:47.052Z,10.15
2022-11-05T03:59:14.927Z,9.23
2022-11-05T04:01:42.812Z,9.00
2022-11-05T04:04:10.703Z,9.02
2022-11-05T04:06:56.664Z,8.85
2022-11-05T04:09:42.547Z,9.30
2022-11-05T04:12:29.945Z,8.27
2022-11-05T04:14:57.528Z,9.38
2022-11-05T04:17:24.926Z,9.18
2022-11-05T04:20:11.137Z,8.63
2022-11-05T04:22:56.898Z,10.00
2022-11-05T04:25:24.393Z,9.52
2022-11-05T04:27:52.101Z,9.23
2022-11-05T04:30:20.300Z,9.57
2022-11-05T04:33:11.706Z,9.30
2022-11-05T04:35:40.819Z,10.20
2022-11-05T04:38:09.776Z,10.02
2022-11-05T04:40:37.615Z,10.00
2022-11-05T04:43:06.549Z,9.50
2022-11-05T04:45:37.294Z,10.07
2022-11-05T04:48:05.064Z,9.82
2022-11-05T04:50:33.160Z,10.88
2022-11-05T04:53:01.390Z,10.82
2022-11-05T04:55:29.247Z,10.18
2022-11-05T04:57:56.836Z,9.68
2022-11-05T05:00:24.914Z,11.52
2022-11-05T05:02:52.554Z,9.77
2022-11-05T05:05:19.985Z,9.98
2022-11-05T05:07:47.645Z,9.63
2022-11-05T05:10:15.252Z,10.10
2022-11-05T05:12:42.561Z,10.40
2022-11-05T05:15:10.200Z,10.50
2022-11-05T05:17:37.675Z,10.82
2022-11-05T05:20:23.787Z,10.60
2022-11-05T05:22:55.277Z,10.75
2022-11-05T05:25:23.121Z,11.10
2022-11-05T05:27:50.893Z,10.93
2022-11-05T05:30:18.812Z,10.52
2022-11-05T05:32:46.460Z,10.75
2022-11-05T05:35:14.097Z,12.65
2022-11-05T05:37:41.805Z,10.85
2022-11-05T05:40:09.891Z,11.63
2022-11-05T05:42:42.725Z,12.20
2022-11-05T05:45:10.889Z,12.53
2022-11-05T05:47:38.252Z,12.18
2022-11-05T05:50:05.781Z,12.38
2022-11-05T05:52:33.094Z,12.10
2022-11-05T05:55:00.819Z,12.25
2022-11-05T05:57:28.131Z,12.20
2022-11-05T05:59:55.738Z,12.48
2022-11-05T06:02:23.256Z,11.25
2022-11-05T06:04:51.092Z,12.93
2022-11-05T06:07:18.441Z,11.43
2022-11-05T06:09:46.005Z,11.23
2022-11-05T06:12:13.375Z,12.27
2022-11-05T06:14:40.814Z,11.60
2022-11-05T06:17:08.480Z,11.98
2022-11-05T06:19:36.213Z,10.77
2022-11-05T06:22:04.146Z,10.18
2022-11-05T06:24:31.451Z,10.90
2022-11-05T06:26:59.033Z,10.75
2022-11-05T06:29:26.809Z,9.82
2022-11-05T06:31:54.441Z,9.50
2022-11-05T06:34:22.104Z,10.27
2022-11-05T06:36:49.410Z,10.20
2022-11-05T06:39:16.776Z,10.80
2022-11-05T06:42:11.912Z,10.80
2022-11-05T06:44:32.948Z,10.60
2022-11-05T06:47:00.465Z,10.55
2022-11-05T06:49:27.740Z,9.85
2022-11-05T06:51:55.108Z,9.27
2022-11-05T06:54:22.742Z,10.23
2022-11-05T06:56:50.385Z,10.73
2022-11-05T06:59:18.064Z,11.70
2022-11-05T07:01:45.489Z,10.88
2022-11-05T07:04:13.682Z,11.40
2022-11-05T07:06:41.101Z,11.48
2022-11-05T07:09:08.416Z,11.27
2022-11-05T07:11:35.902Z,11.23
2022-11-05T07:14:03.566Z,9.90
2022-11-05T07:16:31.432Z,11.57
2022-11-05T07:18:58.913Z,12.45
2022-11-05T07:21:26.680Z,12.13
2022-11-05T07:23:54.254Z,11.05
2022-11-05T07:26:22.753Z,11.38
2022-11-05T07:28:50.246Z,10.90
2022-11-05T07:31:17.892Z,10.93
2022-11-05T07:33:45.195Z,10.40
2022-11-05T07:36:12.732Z,12.30
2022-11-05T07:38:40.391Z,10.65
2022-11-05T07:41:07.899Z,10.70
2022-11-05T07:43:35.199Z,9.65
2022-11-05T07:46:02.638Z,10.38
2022-11-05T07:48:29.961Z,10.55
2022-11-05T07:50:57.406Z,9.43
2022-11-05T07:53:25.442Z,10.23
2022-11-05T07:55:52.892Z,9.65
2022-11-05T07:58:20.579Z,9.85
2022-11-05T08:00:48.310Z,9.18
2022-11-05T08:03:17.358Z,9.65
2022-11-05T08:05:47.033Z,9.10
2022-11-05T08:08:15.723Z,8.80
2022-11-05T08:10:43.798Z,10.00
2022-11-05T08:13:12.075Z,9.25
2022-11-05T08:15:39.761Z,9.80
2022-11-05T08:18:08.914Z,9.07
2022-11-05T08:20:37.258Z,9.23
2022-11-05T08:23:04.892Z,9.50
2022-11-05T08:25:32.621Z,9.52
2022-11-05T08:28:01.353Z,9.63
2022-11-05T08:30:29.058Z,9.48
2022-11-05T08:33:00.215Z,8.65
2022-11-05T08:35:28.147Z,9.23
2022-11-05T08:37:59.451Z,8.90
2022-11-05T08:40:27.335Z,8.50
2022-11-05T08:42:57.340Z,8.88
2022-11-05T08:45:25.857Z,9.18
2022-11-05T08:47:59.398Z,7.00
2022-11-05T08:50:27.999Z,8.25
2022-11-05T08:52:55.700Z,8.43
2022-11-05T08:55:23.340Z,8.60
2022-11-05T08:57:55.813Z,8.32
2022-11-05T09:00:23.524Z,7.78
2022-11-05T09:02:51.081Z,7.18
2022-11-05T09:05:18.856Z,6.72
2022-11-05T09:07:47.160Z,6.70
2022-11-05T09:10:15.296Z,7.45
2022-11-05T09:12:42.693Z,7.70
2022-11-05T09:15:10.337Z,6.93
2022-11-05T09:17:37.841Z,7.28
2022-11-05T09:20:07.226Z,6.78
2022-11-05T09:22:37.861Z,6.60
2022-11-05T09:25:08.463Z,5.38
2022-11-05T09:27:36.337Z,5.45
2022-11-05T09:30:03.740Z,5.70
2022-11-05T09:32:34.246Z,5.05
2022-11-05T09:35:01.994Z,5.78
2022-11-05T09:37:30.068Z,5.40
2022-11-05T09:39:57.403Z,5.40
2022-11-05T09:42:27.427Z,5.72
2022-11-05T09:45:18.258Z,5.75
2022-11-05T09:47:53.866Z,5.53
2022-11-05T09:50:25.677Z,5.05
2022-11-05T09:52:53.016Z,5.63
2022-11-05T09:55:26.484Z,4.88
2022-11-05T09:57:56.780Z,4.87
2022-11-05T10:00:24.890Z,4.38
2022-11-05T10:02:59.078Z,4.60
2022-11-05T10:05:27.213Z,4.35
2022-11-05T10:08:00.503Z,4.65
2022-11-05T10:10:35.232Z,4.10
2022-11-05T10:13:17.123Z,5.50
2022-11-05T10:15:54.845Z,3.97
2022-11-05T10:18:37.346Z,4.00
2022-11-05T10:21:04.958Z,3.47
2022-11-05T10:23:33.140Z,8.45
2022-11-05T10:26:03.761Z,5.85
2022-11-05T10:28:33.008Z,4.30
2022-11-05T10:31:01.789Z,4.07
2022-11-05T10:33:35.153Z,3.75
2022-11-05T10:36:07.254Z,4.53
2022-11-05T10:38:35.000Z,3.85
2022-11-05T10:41:02.267Z,3.17
2022-11-05T10:43:32.437Z,3.15
2022-11-05T10:46:24.962Z,3.58
2022-11-05T10:48:52.426Z,3.20
2022-11-05T10:51:19.886Z,3.50
2022-11-05T10:53:54.872Z,3.60
2022-11-05T10:56:35.406Z,4.78
2022-11-05T10:59:07.908Z,4.40
2022-11-05T11:01:37.370Z,5.20
2022-11-05T11:04:13.917Z,2.70
2022-11-05T11:06:45.372Z,4.53
2022-11-05T11:09:20.158Z,4.28
2022-11-05T11:11:55.040Z,3.90
2022-11-05T11:14:22.656Z,3.90
2022-11-05T11:16:51.868Z,4.25
2022-11-05T11:19:24.850Z,4.20
2022-11-05T11:22:12.450Z,3.88
2022-11-05T11:24:39.975Z,4.55
2022-11-05T11:27:10.583Z,5.82
2022-11-05T11:29:42.886Z,5.43
2022-11-05T11:32:16.124Z,5.50
2022-11-05T11:34:44.800Z,6.07
2022-11-05T11:37:19.221Z,5.30
2022-11-05T11:39:49.234Z,5.50
2022-11-05T11:42:31.449Z,5.75
2022-11-05T11:45:00.700Z,5.60
2022-11-05T11:47:30.287Z,6.05
2022-11-05T11:50:02.380Z,5.80
2022-11-05T11:52:31.195Z,5.68
2022-11-05T11:55:18.151Z,6.47
2022-11-05T11:57:50.722Z,7.13
2022-11-05T12:00:18.907Z,7.03
2022-11-05T12:03:04.747Z,6.70
2022-11-05T12:05:32.101Z,5.72
2022-11-05T12:08:18.360Z,5.55
2022-11-05T12:11:01.428Z,4.78
2022-11-05T12:13:47.208Z,5.55
2022-11-05T12:16:35.827Z,4.70
2022-11-05T12:19:20.683Z,4.63
2022-11-05T12:21:52.871Z,5.10
2022-11-05T12:24:23.931Z,5.00
2022-11-05T12:26:59.344Z,5.40
2022-11-05T12:29:35.876Z,4.35
2022-11-05T12:32:06.540Z,4.43
2022-11-05T12:34:39.793Z,4.72
2022-11-05T12:37:26.069Z,6.40
2022-11-05T12:40:02.818Z,4.90
2022-11-05T12:42:33.794Z,5.70
2022-11-05T12:45:19.626Z,4.78
2022-11-05T12:48:06.190Z,5.88
2022-11-05T12:50:39.704Z,8.93
2022-11-05T12:53:13.180Z,7.13
2022-11-05T12:55:48.063Z,7.22
2022-11-05T12:58:32.289Z,7.20
2022-11-05T13:01:03.312Z,6.88
2022-11-05T13:03:33.564Z,7.60
2022-11-05T13:06:14.676Z,6.75
2022-11-05T13:08:42.354Z,5.97
2022-11-05T13:11:29.248Z,7.45
2022-11-05T13:13:59.607Z,6.35
2022-11-05T13:16:29.901Z,4.75
2022-11-05T13:19:00.361Z,4.40
2022-11-05T13:21:29.714Z,2.83
2022-11-05T13:24:11.948Z,2.75
2022-11-05T13:26:51.242Z,3.03
2022-11-05T13:29:18.693Z,2.72
2022-11-05T13:31:52.458Z,2.40
2022-11-05T13:34:19.940Z,1.85
2022-11-05T13:37:13.135Z,2.10
2022-11-05T13:39:48.885Z,2.33
2022-11-05T13:42:22.155Z,2.28
2022-11-05T13:45:07.912Z,2.80
2022-11-05T13:47:41.427Z,3.00
2022-11-05T13:50:27.705Z,3.67
2022-11-05T13:53:09.349Z,4.10
2022-11-05T13:55:57.958Z,4.15
2022-11-05T13:58:25.269Z,5.00
2022-11-05T14:01:07.801Z,5.20
2022-11-05T14:03:35.339Z,4.85
2022-11-05T14:06:07.264Z,5.07
2022-11-05T14:08:39.883Z,5.50
2022-11-05T14:11:21.375Z,5.25
2022-11-05T14:13:51.832Z,5.55
2022-11-05T14:16:23.377Z,6.07
2022-11-05T14:18:51.454Z,5.45
2022-11-05T14:21:27.928Z,7.28
2022-11-05T14:23:59.570Z,7.22
2022-11-05T14:26:33.722Z,9.18
2022-11-05T14:29:04.235Z,8.02
2022-11-05T14:31:54.605Z,6.93
2022-11-05T14:34:42.377Z,6.38
2022-11-05T14:37:12.917Z,6.78
2022-11-05T14:39:44.177Z,6.95
2022-11-05T14:42:26.304Z,7.10
2022-11-05T14:44:57.044Z,14.80
2022-11-05T14:47:25.323Z,6.22
2022-11-05T14:49:54.190Z,3.05
2022-11-05T14:52:21.712Z,3.17
2022-11-05T14:54:51.244Z,2.70
2022-11-05T14:57:37.660Z,2.45
2022-11-05T15:00:05.982Z,3.15
2022-11-05T15:02:35.752Z,4.63
2022-11-05T15:05:26.116Z,4.85
2022-11-05T15:07:57.538Z,4.00
2022-11-05T15:10:28.423Z,3.28
2022-11-05T15:12:57.845Z,3.10
2022-11-05T15:15:39.741Z,2.78
2022-11-05T15:18:14.952Z,3.30
2022-11-05T15:20:44.467Z,3.35
2022-11-05T15:23:14.061Z,5.63
2022-11-05T15:25:52.966Z,4.95
2022-11-05T15:28:40.049Z,5.18
2022-11-05T15:31:21.659Z,3.80
2022-11-05T15:33:49.289Z,3.63
2022-11-05T15:36:32.660Z,3.30
2022-11-05T15:39:28.863Z,3.67
2022-11-05T15:41:48.251Z,3.67
2022-11-05T15:44:26.185Z,3.47
2022-11-05T15:47:13.374Z,3.70
2022-11-05T15:49:41.205Z,3.63
2022-11-05T15:52:11.480Z,4.15
2022-11-05T15:54:39.024Z,3.70
2022-11-05T15:57:06.882Z,6.35
2022-11-05T15:59:35.432Z,5.57
2022-11-05T16:02:22.206Z,7.30
2022-11-05T16:04:50.221Z,6.55
2022-11-05T16:07:18.029Z,6.10
2022-11-05T16:10:15.043Z,6.60
2022-11-05T16:12:42.315Z,11.95
2022-11-05T16:15:09.754Z,8.80
2022-11-05T16:17:40.094Z,8.68
2022-11-05T16:20:27.859Z,8.43
2022-11-05T16:22:56.794Z,7.35
2022-11-05T16:25:27.707Z,5.72
2022-11-05T16:27:55.297Z,5.80
2022-11-05T16:30:23.108Z,5.20
2022-11-05T16:32:50.594Z,3.95
2022-11-05T16:35:22.427Z,3.83
2022-11-05T16:37:52.334Z,3.80
2022-11-05T16:40:21.352Z,3.80
2022-11-05T16:42:51.576Z,3.80
2022-11-05T16:45:23.625Z,4.10
2022-11-05T16:47:50.896Z,4.13
2022-11-05T16:50:25.958Z,4.30
2022-11-05T16:52:53.987Z,3.75
2022-11-05T16:55:22.092Z,3.80
2022-11-05T16:57:51.935Z,3.90
2022-11-05T17:00:20.583Z,3.65
2022-11-05T17:02:48.312Z,3.65
2022-11-05T17:05:26.277Z,4.20
2022-11-05T17:07:54.067Z,3.55
2022-11-05T18:04:24.810Z,4.80
2022-11-05T18:06:52.258Z,5.70
2022-11-05T18:09:20.210Z,5.90
2022-11-05T18:11:47.750Z,5.78
2022-11-05T18:14:17.708Z,5.10
2022-11-05T18:16:50.524Z,5.63
2022-11-05T18:38:34.757Z,7.60
2022-11-05T18:41:08.372Z,8.05
2022-11-05T18:43:36.028Z,7.20
2022-11-05T18:46:03.774Z,7.43
2022-11-05T18:48:31.224Z,7.97
2022-11-05T18:51:01.865Z,7.05
2022-11-05T18:53:29.942Z,7.38
2022-11-05T18:55:57.435Z,7.18
2022-11-05T18:58:24.899Z,7.50
2022-11-05T19:00:52.617Z,6.97
2022-11-05T19:03:20.069Z,7.70
2022-11-05T19:05:47.433Z,7.13
2022-11-05T19:08:15.182Z,7.75
2022-11-05T19:10:43.004Z,6.65
2022-11-05T19:13:10.717Z,7.25
2022-11-05T19:15:38.101Z,7.03
2022-11-05T19:18:05.505Z,6.35
2022-11-05T19:20:37.660Z,6.28
2022-11-05T19:23:06.714Z,6.55
2022-11-05T19:25:34.447Z,6.97
2022-11-05T19:28:03.186Z,6.97
2022-11-05T19:30:30.543Z,6.75
2022-11-05T19:32:57.995Z,6.72
2022-11-05T19:35:27.038Z,6.53
2022-11-05T19:37:54.811Z,6.45
2022-11-05T19:40:22.453Z,7.25
2022-11-05T19:42:49.967Z,6.40
2022-11-05T19:45:38.756Z,7.30
2022-11-05T19:48:04.777Z,6.40
2022-11-05T19:50:32.978Z,6.90
2022-11-05T19:53:00.739Z,6.72
2022-11-05T19:55:28.776Z,6.90
2022-11-05T19:57:56.394Z,5.82
2022-11-05T20:00:23.882Z,5.95
2022-11-05T20:02:51.754Z,5.85
2022-11-05T20:05:19.444Z,6.30
2022-11-05T20:07:52.515Z,7.13
2022-11-05T20:10:20.644Z,6.50
2022-11-05T20:12:48.252Z,6.47
2022-11-05T20:15:15.504Z,5.97
2022-11-05T20:17:43.009Z,8.15
2022-11-05T20:20:10.600Z,7.25
2022-11-05T20:22:38.828Z,7.22
2022-11-05T20:25:07.006Z,6.50
2022-11-05T20:27:34.506Z,6.13
2022-11-05T20:30:02.220Z,6.57
2022-11-05T20:32:29.823Z,5.65
2022-11-05T20:34:57.245Z,5.45
2022-11-05T20:37:25.014Z,6.22
2022-11-05T20:39:52.321Z,6.07
2022-11-05T20:42:20.047Z,5.68
2022-11-05T20:44:47.449Z,6.30
2022-11-05T20:47:14.753Z,6.05
2022-11-05T20:49:42.392Z,5.70
2022-11-05T20:52:10.054Z,6.07
2022-11-05T20:54:38.387Z,6.10
2022-11-05T20:57:06.052Z,6.25
2022-11-05T20:59:33.398Z,6.57
2022-11-05T21:02:01.132Z,6.38
2022-11-05T21:04:28.989Z,6.95
2022-11-05T21:06:56.550Z,6.35
2022-11-05T21:09:24.130Z,6.82
2022-11-05T21:12:18.887Z,5.97
2022-11-05T21:14:46.680Z,5.90
2022-11-05T21:17:14.629Z,5.47
2022-11-05T21:19:42.207Z,6.47
2022-11-05T21:22:09.694Z,5.47
2022-11-05T21:24:37.421Z,6.88
2022-11-05T21:27:05.172Z,6.60
2022-11-05T21:29:32.877Z,10.00
2022-11-05T21:32:00.406Z,7.28
2022-11-05T21:34:28.257Z,8.45
2022-11-05T21:36:55.566Z,8.77
2022-11-05T21:39:23.262Z,9.65
2022-11-05T21:41:50.727Z,9.75
2022-11-05T21:44:18.383Z,8.55
2022-11-05T21:46:46.317Z,8.45
2022-11-05T21:49:15.027Z,8.82
2022-11-05T21:52:01.273Z,8.05
2022-11-05T21:54:47.665Z,9.23
2022-11-05T21:57:34.902Z,8.27
2022-11-05T22:00:04.031Z,8.60
2022-11-05T22:02:31.542Z,7.90
2022-11-05T22:05:00.308Z,7.82
2022-11-05T22:07:29.701Z,7.95
2022-11-05T22:09:57.370Z,7.35
2022-11-05T22:12:25.639Z,7.72
2022-11-05T22:14:53.906Z,8.30
2022-11-05T22:17:22.164Z,8.70
2022-11-05T22:19:50.255Z,7.47
2022-11-05T22:22:17.807Z,8.27
2022-11-05T22:24:45.791Z,9.20
2022-11-05T22:27:14.686Z,8.52
2022-11-05T22:29:42.794Z,7.15
2022-11-05T22:32:11.225Z,8.07
2022-11-05T22:34:38.958Z,7.75
2022-11-05T22:37:06.847Z,6.72
2022-11-05T22:39:34.571Z,7.63
2022-11-05T22:42:07.090Z,10.00
2022-11-05T22:44:36.283Z,10.25
2022-11-05T22:47:03.794Z,11.85
2022-11-05T22:49:31.578Z,12.85
2022-11-05T22:51:59.265Z,12.95
2022-11-05T22:54:26.571Z,11.82
2022-11-05T22:56:54.022Z,11.52
2022-11-05T22:59:21.799Z,11.65
2022-11-05T23:01:49.664Z,10.88
2022-11-05T23:04:17.493Z,10.73
2022-11-05T23:07:03.723Z,10.65
2022-11-05T23:09:51.350Z,10.68
2022-11-05T23:12:24.383Z,9.70
2022-11-05T23:14:52.366Z,9.52
2022-11-05T23:17:38.771Z,8.82
2022-11-05T23:20:26.234Z,8.32
2022-11-05T23:23:12.718Z,9.07
2022-11-05T23:25:40.182Z,8.50
2022-11-05T23:28:10.414Z,8.30
2022-11-05T23:30:59.558Z,7.85
2022-11-05T23:33:27.253Z,7.30
2022-11-05T23:36:13.832Z,8.18
2022-11-05T23:38:41.668Z,8.48
2022-11-05T23:41:28.033Z,8.85
2022-11-05T23:44:14.015Z,10.05
2022-11-05T23:47:00.318Z,7.50
2022-11-05T23:49:28.558Z,7.65
2022-11-05T23:51:56.135Z,7.28
2022-11-05T23:54:23.746Z,8.15
2022-11-05T23:56:51.600Z,8.05
2022-11-05T23:59:19.877Z,7.38
